Portada
METAR-TAF:

METAR-TAF

Aeroports :

Burgos, Espanya

latitud: 42-22N, longitud: 003-38W, altitud: 894 m

Observació

L'informe es va fer fa 26 minuts, a les 08:30 UTC
Vent 11 kt del Sud
Temperatura 16°C
Humitat 82%
Pressió 1014 hPa
Visibilitat 10 km o més
Núvols disperses a una alçada de 3300 ft

METAR: LEBG 210830Z 17011KT 9999 SCT033 16/13 Q1014

Hora: 10:56 (08:56 UTC)

Pronòstic

L'informe es va fer fa 3 hores i 56 minuts, a les 05:00 UTC
Pronòstic vàlid del 21 a les 06 UTC al 21 a les 15 UTC
Vent 10 kt del Sud
Visibilitat 10 km o més
Núvols disperses a una alçada de 4000 ft
Temporalment
l' 21 a les 09 UTC al 21 a les 15 UTC
Vent 15 kt del Sud amb ràfegues de 26 kt

TAF: LEBG 210500Z 2106/2115 19010KT 9999 SCT040 TEMPO 2109/2115 19015G26KT

Observacions i pronòstics meteorològics de més de 4000 aeroports (METAR i TAF).

Les estacions disponibles són els punts grocs i vermells al mapa.

Posi el ratolí al punt desitjat per veure el nom de l'estació.

Feu clic per veure les observacions i els pronòstics meteorològics.

Per canviar el mapa: feu clic els botons verds amb una creu de color negre per apropar; al botó verd amb un guió per allunyar la imatge; o en les fletxes verdes per a mapes adjacents.


METAR-TAF: